sensor_id;sensor_type;location;lat;lon;timestamp;temperature;humidity
67273;DHT22;54190;49.770;9.250;2023-04-26T00:02:02;3.10;99.90
67273;DHT22;54190;49.770;9.250;2023-04-26T00:04:29;3.20;99.90
67273;DHT22;54190;49.770;9.250;2023-04-26T00:06:55;3.30;99.90
67273;DHT22;54190;49.770;9.250;2023-04-26T00:09:21;3.30;99.90
67273;DHT22;54190;49.770;9.250;2023-04-26T00:11:47;3.40;99.90
67273;DHT22;54190;49.770;9.250;2023-04-26T00:14:12;3.30;99.90
67273;DHT22;54190;49.770;9.250;2023-04-26T00:16:38;3.20;99.90
67273;DHT22;54190;49.770;9.250;2023-04-26T00:19:04;3.20;99.90
67273;DHT22;54190;49.770;9.250;2023-04-26T00:21:29;3.20;99.90
67273;DHT22;54190;49.770;9.250;2023-04-26T00:23:56;3.10;99.90
67273;DHT22;54190;49.770;9.250;2023-04-26T00:26:22;3.10;99.90
67273;DHT22;54190;49.770;9.250;2023-04-26T00:28:47;3.10;99.90
67273;DHT22;54190;49.770;9.250;2023-04-26T00:31:14;3.00;99.90
67273;DHT22;54190;49.770;9.250;2023-04-26T00:33:40;3.00;99.90
67273;DHT22;54190;49.770;9.250;2023-04-26T00:36:07;2.90;99.90
67273;DHT22;54190;49.770;9.250;2023-04-26T00:38:32;2.90;99.90
67273;DHT22;54190;49.770;9.250;2023-04-26T00:40:58;2.90;99.90
67273;DHT22;54190;49.770;9.250;2023-04-26T00:43:24;2.90;99.90
67273;DHT22;54190;49.770;9.250;2023-04-26T00:45:50;2.90;99.90
67273;DHT22;54190;49.770;9.250;2023-04-26T00:48:17;2.80;99.90
67273;DHT22;54190;49.770;9.250;2023-04-26T00:50:43;2.80;99.90
67273;DHT22;54190;49.770;9.250;2023-04-26T00:53:08;2.80;99.90
67273;DHT22;54190;49.770;9.250;2023-04-26T00:55:35;2.80;99.90
67273;DHT22;54190;49.770;9.250;2023-04-26T00:58:01;2.70;99.90
67273;DHT22;54190;49.770;9.250;2023-04-26T01:00:26;2.70;99.90
67273;DHT22;54190;49.770;9.250;2023-04-26T01:02:52;2.70;99.90
67273;DHT22;54190;49.770;9.250;2023-04-26T01:05:18;2.70;99.90
67273;DHT22;54190;49.770;9.250;2023-04-26T01:07:44;2.70;99.90
67273;DHT22;54190;49.770;9.250;2023-04-26T01:10:10;2.60;99.90
67273;DHT22;54190;49.770;9.250;2023-04-26T01:12:37;2.60;99.90
67273;DHT22;54190;49.770;9.250;2023-04-26T01:15:03;2.60;99.90
67273;DHT22;54190;49.770;9.250;2023-04-26T01:17:30;2.60;99.90
67273;DHT22;54190;49.770;9.250;2023-04-26T01:19:55;2.70;99.90
67273;DHT22;54190;49.770;9.250;2023-04-26T01:22:21;2.70;99.90
67273;DHT22;54190;49.770;9.250;2023-04-26T01:24:50;2.70;99.90
67273;DHT22;54190;49.770;9.250;2023-04-26T01:27:16;2.70;99.90
67273;DHT22;54190;49.770;9.250;2023-04-26T01:29:42;2.70;99.90
67273;DHT22;54190;49.770;9.250;2023-04-26T01:32:08;2.50;99.90
67273;DHT22;54190;49.770;9.250;2023-04-26T01:34:34;2.50;99.90
67273;DHT22;54190;49.770;9.250;2023-04-26T01:37:00;2.30;99.90
67273;DHT22;54190;49.770;9.250;2023-04-26T01:39:27;2.30;99.90
67273;DHT22;54190;49.770;9.250;2023-04-26T01:41:53;2.20;99.90
67273;DHT22;54190;49.770;9.250;2023-04-26T01:44:18;1.90;99.90
67273;DHT22;54190;49.770;9.250;2023-04-26T01:46:44;1.70;99.90
67273;DHT22;54190;49.770;9.250;2023-04-26T01:49:11;1.60;99.90
67273;DHT22;54190;49.770;9.250;2023-04-26T01:51:37;1.50;99.90
67273;DHT22;54190;49.770;9.250;2023-04-26T01:54:05;1.40;99.90
67273;DHT22;54190;49.770;9.250;2023-04-26T01:56:31;1.30;99.90
67273;DHT22;54190;49.770;9.250;2023-04-26T01:58:59;1.30;99.90
67273;DHT22;54190;49.770;9.250;2023-04-26T02:01:25;1.50;99.90
67273;DHT22;54190;49.770;9.250;2023-04-26T02:03:51;1.70;99.90
67273;DHT22;54190;49.770;9.250;2023-04-26T02:06:18;1.80;99.90
67273;DHT22;54190;49.770;9.250;2023-04-26T02:08:44;1.80;99.90
67273;DHT22;54190;49.770;9.250;2023-04-26T02:11:10;2.00;99.90
67273;DHT22;54190;49.770;9.250;2023-04-26T02:13:36;2.00;99.90
67273;DHT22;54190;49.770;9.250;2023-04-26T02:16:02;2.00;99.90
67273;DHT22;54190;49.770;9.250;2023-04-26T02:18:28;2.00;99.90
67273;DHT22;54190;49.770;9.250;2023-04-26T02:20:54;2.00;99.90
67273;DHT22;54190;49.770;9.250;2023-04-26T02:23:20;1.90;99.90
67273;DHT22;54190;49.770;9.250;2023-04-26T02:25:47;1.80;99.90
67273;DHT22;54190;49.770;9.250;2023-04-26T02:28:13;1.80;99.90
67273;DHT22;54190;49.770;9.250;2023-04-26T02:30:39;1.80;99.90
67273;DHT22;54190;49.770;9.250;2023-04-26T02:33:05;1.80;99.90
67273;DHT22;54190;49.770;9.250;2023-04-26T02:35:30;1.70;99.90
67273;DHT22;54190;49.770;9.250;2023-04-26T02:37:57;1.50;99.90
67273;DHT22;54190;49.770;9.250;2023-04-26T02:40:23;1.40;99.90
67273;DHT22;54190;49.770;9.250;2023-04-26T02:42:49;1.40;99.90
67273;DHT22;54190;49.770;9.250;2023-04-26T02:45:15;1.40;99.90
67273;DHT22;54190;49.770;9.250;2023-04-26T02:47:41;1.50;99.90
67273;DHT22;54190;49.770;9.250;2023-04-26T02:50:08;1.50;99.90
67273;DHT22;54190;49.770;9.250;2023-04-26T02:52:35;1.60;99.90
67273;DHT22;54190;49.770;9.250;2023-04-26T02:55:03;1.60;99.90
67273;DHT22;54190;49.770;9.250;2023-04-26T02:57:30;1.60;99.90
67273;DHT22;54190;49.770;9.250;2023-04-26T02:59:56;1.60;99.90
67273;DHT22;54190;49.770;9.250;2023-04-26T03:02:23;1.60;99.90
67273;DHT22;54190;49.770;9.250;2023-04-26T03:04:48;1.60;99.90
67273;DHT22;54190;49.770;9.250;2023-04-26T03:07:14;1.60;99.90
67273;DHT22;54190;49.770;9.250;2023-04-26T03:09:41;1.70;99.90
67273;DHT22;54190;49.770;9.250;2023-04-26T03:12:07;1.60;99.90
67273;DHT22;54190;49.770;9.250;2023-04-26T03:14:34;1.60;99.90
67273;DHT22;54190;49.770;9.250;2023-04-26T03:17:01;1.60;99.90
67273;DHT22;54190;49.770;9.250;2023-04-26T03:19:28;1.50;99.90
67273;DHT22;54190;49.770;9.250;2023-04-26T03:21:55;1.60;99.90
67273;DHT22;54190;49.770;9.250;2023-04-26T03:24:21;1.60;99.90
67273;DHT22;54190;49.770;9.250;2023-04-26T03:26:47;1.50;99.90
67273;DHT22;54190;49.770;9.250;2023-04-26T03:29:14;1.60;99.90
67273;DHT22;54190;49.770;9.250;2023-04-26T03:31:40;1.50;99.90
67273;DHT22;54190;49.770;9.250;2023-04-26T03:34:06;1.60;99.90
67273;DHT22;54190;49.770;9.250;2023-04-26T03:36:33;1.50;99.90
67273;DHT22;54190;49.770;9.250;2023-04-26T03:38:59;1.40;99.90
67273;DHT22;54190;49.770;9.250;2023-04-26T03:41:25;1.40;99.90
67273;DHT22;54190;49.770;9.250;2023-04-26T03:43:52;1.40;99.90
67273;DHT22;54190;49.770;9.250;2023-04-26T03:46:22;1.40;99.90
67273;DHT22;54190;49.770;9.250;2023-04-26T03:48:48;1.40;99.90
67273;DHT22;54190;49.770;9.250;2023-04-26T03:51:13;1.40;99.90
67273;DHT22;54190;49.770;9.250;2023-04-26T03:53:39;1.30;99.90
67273;DHT22;54190;49.770;9.250;2023-04-26T03:56:07;1.40;99.90
67273;DHT22;54190;49.770;9.250;2023-04-26T03:58:33;1.30;99.90
67273;DHT22;54190;49.770;9.250;2023-04-26T04:00:59;1.20;99.90
67273;DHT22;54190;49.770;9.250;2023-04-26T04:03:25;1.20;99.90
67273;DHT22;54190;49.770;9.250;2023-04-26T04:05:51;1.20;99.90
67273;DHT22;54190;49.770;9.250;2023-04-26T04:08:16;1.30;99.90
67273;DHT22;54190;49.770;9.250;2023-04-26T04:10:43;1.20;99.90
67273;DHT22;54190;49.770;9.250;2023-04-26T04:13:09;1.30;99.90
67273;DHT22;54190;49.770;9.250;2023-04-26T04:15:35;1.20;99.90
67273;DHT22;54190;49.770;9.250;2023-04-26T04:18:01;1.30;99.90
67273;DHT22;54190;49.770;9.250;2023-04-26T04:20:27;1.30;99.90
67273;DHT22;54190;49.770;9.250;2023-04-26T04:22:55;1.20;99.90
67273;DHT22;54190;49.770;9.250;2023-04-26T04:25:23;1.30;99.90
67273;DHT22;54190;49.770;9.250;2023-04-26T04:27:51;1.30;99.90
67273;DHT22;54190;49.770;9.250;2023-04-26T04:30:17;1.30;99.90
67273;DHT22;54190;49.770;9.250;2023-04-26T04:32:43;1.20;99.90
67273;DHT22;54190;49.770;9.250;2023-04-26T04:35:10;1.20;99.90
67273;DHT22;54190;49.770;9.250;2023-04-26T04:37:36;1.10;99.90
67273;DHT22;54190;49.770;9.250;2023-04-26T04:40:03;1.00;99.90
67273;DHT22;54190;49.770;9.250;2023-04-26T04:42:31;1.00;99.90
67273;DHT22;54190;49.770;9.250;2023-04-26T04:44:57;1.00;99.90
67273;DHT22;54190;49.770;9.250;2023-04-26T04:47:25;1.00;99.90
67273;DHT22;54190;49.770;9.250;2023-04-26T04:49:51;1.00;99.90
67273;DHT22;54190;49.770;9.250;2023-04-26T04:52:18;1.10;99.90
67273;DHT22;54190;49.770;9.250;2023-04-26T04:54:47;1.10;99.90
67273;DHT22;54190;49.770;9.250;2023-04-26T04:57:14;1.00;99.90
67273;DHT22;54190;49.770;9.250;2023-04-26T04:59:41;0.90;99.90
67273;DHT22;54190;49.770;9.250;2023-04-26T05:02:08;0.90;99.90
67273;DHT22;54190;49.770;9.250;2023-04-26T05:04:33;0.80;99.90
67273;DHT22;54190;49.770;9.250;2023-04-26T05:06:59;0.90;99.90
67273;DHT22;54190;49.770;9.250;2023-04-26T05:09:26;1.00;99.90
67273;DHT22;54190;49.770;9.250;2023-04-26T05:11:52;1.00;99.90
67273;DHT22;54190;49.770;9.250;2023-04-26T05:14:17;1.00;99.90
67273;DHT22;54190;49.770;9.250;2023-04-26T05:16:43;1.10;99.90
67273;DHT22;54190;49.770;9.250;2023-04-26T05:19:08;1.20;99.90
67273;DHT22;54190;49.770;9.250;2023-04-26T05:21:34;1.20;99.90
67273;DHT22;54190;49.770;9.250;2023-04-26T05:24:00;1.30;99.90
67273;DHT22;54190;49.770;9.250;2023-04-26T05:26:26;1.30;99.90
67273;DHT22;54190;49.770;9.250;2023-04-26T05:29:10;1.20;99.90
67273;DHT22;54190;49.770;9.250;2023-04-26T05:31:44;1.20;99.90
67273;DHT22;54190;49.770;9.250;2023-04-26T05:34:20;1.10;99.90
67273;DHT22;54190;49.770;9.250;2023-04-26T05:36:49;1.10;99.90
67273;DHT22;54190;49.770;9.250;2023-04-26T05:39:16;1.00;99.90
67273;DHT22;54190;49.770;9.250;2023-04-26T05:41:43;1.20;99.90
67273;DHT22;54190;49.770;9.250;2023-04-26T05:44:09;1.20;99.90
67273;DHT22;54190;49.770;9.250;2023-04-26T05:46:35;1.10;99.90
67273;DHT22;54190;49.770;9.250;2023-04-26T05:49:01;1.10;99.90
67273;DHT22;54190;49.770;9.250;2023-04-26T05:51:27;1.20;99.90
67273;DHT22;54190;49.770;9.250;2023-04-26T05:53:52;1.30;99.90
67273;DHT22;54190;49.770;9.250;2023-04-26T05:56:18;1.30;99.90
67273;DHT22;54190;49.770;9.250;2023-04-26T05:58:44;1.50;99.90
67273;DHT22;54190;49.770;9.250;2023-04-26T06:01:09;1.60;99.90
67273;DHT22;54190;49.770;9.250;2023-04-26T06:03:36;1.60;99.90
67273;DHT22;54190;49.770;9.250;2023-04-26T06:06:02;1.60;99.90
67273;DHT22;54190;49.770;9.250;2023-04-26T06:08:29;1.60;99.90
67273;DHT22;54190;49.770;9.250;2023-04-26T06:10:55;1.60;99.90
67273;DHT22;54190;49.770;9.250;2023-04-26T06:13:24;1.70;99.90
67273;DHT22;54190;49.770;9.250;2023-04-26T06:15:52;1.80;99.90
67273;DHT22;54190;49.770;9.250;2023-04-26T06:18:18;1.80;99.90
67273;DHT22;54190;49.770;9.250;2023-04-26T06:20:45;1.90;99.90
67273;DHT22;54190;49.770;9.250;2023-04-26T06:23:11;1.90;99.90
67273;DHT22;54190;49.770;9.250;2023-04-26T06:25:37;2.00;99.90
67273;DHT22;54190;49.770;9.250;2023-04-26T06:28:08;2.10;99.90
67273;DHT22;54190;49.770;9.250;2023-04-26T06:30:34;2.20;99.90
67273;DHT22;54190;49.770;9.250;2023-04-26T06:33:00;2.20;99.90
67273;DHT22;54190;49.770;9.250;2023-04-26T06:35:25;2.30;99.90
67273;DHT22;54190;49.770;9.250;2023-04-26T06:37:51;2.40;99.90
67273;DHT22;54190;49.770;9.250;2023-04-26T06:40:17;2.40;99.90
67273;DHT22;54190;49.770;9.250;2023-04-26T06:42:43;2.50;99.90
67273;DHT22;54190;49.770;9.250;2023-04-26T06:45:23;2.60;99.90
67273;DHT22;54190;49.770;9.250;2023-04-26T06:47:54;2.70;99.90
67273;DHT22;54190;49.770;9.250;2023-04-26T06:50:24;2.80;99.90
67273;DHT22;54190;49.770;9.250;2023-04-26T06:52:50;2.90;99.90
67273;DHT22;54190;49.770;9.250;2023-04-26T06:55:15;2.90;99.90
67273;DHT22;54190;49.770;9.250;2023-04-26T06:57:41;3.00;99.90
67273;DHT22;54190;49.770;9.250;2023-04-26T07:00:07;3.20;99.90
67273;DHT22;54190;49.770;9.250;2023-04-26T07:02:34;3.20;99.90
67273;DHT22;54190;49.770;9.250;2023-04-26T07:04:59;3.30;99.90
67273;DHT22;54190;49.770;9.250;2023-04-26T07:07:25;3.40;99.90
67273;DHT22;54190;49.770;9.250;2023-04-26T07:09:51;3.50;99.90
67273;DHT22;54190;49.770;9.250;2023-04-26T07:12:17;3.60;99.90
67273;DHT22;54190;49.770;9.250;2023-04-26T07:14:43;3.70;99.90
67273;DHT22;54190;49.770;9.250;2023-04-26T07:17:09;3.80;99.90
67273;DHT22;54190;49.770;9.250;2023-04-26T07:19:35;4.00;99.90
67273;DHT22;54190;49.770;9.250;2023-04-26T07:22:01;4.10;99.90
67273;DHT22;54190;49.770;9.250;2023-04-26T07:24:27;4.30;99.90
67273;DHT22;54190;49.770;9.250;2023-04-26T07:26:53;4.50;99.90
67273;DHT22;54190;49.770;9.250;2023-04-26T07:29:19;4.70;99.90
67273;DHT22;54190;49.770;9.250;2023-04-26T07:31:45;4.80;99.90
67273;DHT22;54190;49.770;9.250;2023-04-26T07:34:11;5.10;99.90
67273;DHT22;54190;49.770;9.250;2023-04-26T07:36:37;5.30;99.90
67273;DHT22;54190;49.770;9.250;2023-04-26T07:39:03;5.40;99.90
67273;DHT22;54190;49.770;9.250;2023-04-26T07:41:33;5.50;99.90
67273;DHT22;54190;49.770;9.250;2023-04-26T07:43:59;5.50;99.90
67273;DHT22;54190;49.770;9.250;2023-04-26T07:46:25;5.70;99.90
67273;DHT22;54190;49.770;9.250;2023-04-26T07:48:50;5.90;99.90
67273;DHT22;54190;49.770;9.250;2023-04-26T07:51:16;6.00;99.90
67273;DHT22;54190;49.770;9.250;2023-04-26T07:53:42;6.20;99.90
67273;DHT22;54190;49.770;9.250;2023-04-26T07:56:08;6.40;99.90
67273;DHT22;54190;49.770;9.250;2023-04-26T07:58:35;6.60;99.90
67273;DHT22;54190;49.770;9.250;2023-04-26T08:01:01;6.80;99.90
67273;DHT22;54190;49.770;9.250;2023-04-26T08:03:28;6.80;99.90
67273;DHT22;54190;49.770;9.250;2023-04-26T08:05:54;6.90;99.90
67273;DHT22;54190;49.770;9.250;2023-04-26T08:08:21;7.10;99.90
67273;DHT22;54190;49.770;9.250;2023-04-26T08:10:47;7.20;99.90
67273;DHT22;54190;49.770;9.250;2023-04-26T08:13:12;7.40;99.90
67273;DHT22;54190;49.770;9.250;2023-04-26T08:15:38;7.60;99.90
67273;DHT22;54190;49.770;9.250;2023-04-26T08:18:04;7.90;99.90
67273;DHT22;54190;49.770;9.250;2023-04-26T08:20:30;7.90;99.90
67273;DHT22;54190;49.770;9.250;2023-04-26T08:22:57;7.80;99.90
67273;DHT22;54190;49.770;9.250;2023-04-26T08:25:23;7.80;99.90
67273;DHT22;54190;49.770;9.250;2023-04-26T08:27:49;7.90;99.90
67273;DHT22;54190;49.770;9.250;2023-04-26T08:30:15;8.00;99.90
67273;DHT22;54190;49.770;9.250;2023-04-26T08:32:41;8.20;99.90
67273;DHT22;54190;49.770;9.250;2023-04-26T08:35:07;8.30;99.90
67273;DHT22;54190;49.770;9.250;2023-04-26T08:37:34;8.50;99.90
67273;DHT22;54190;49.770;9.250;2023-04-26T08:40:00;8.70;99.20
67273;DHT22;54190;49.770;9.250;2023-04-26T08:42:27;8.80;99.90
67273;DHT22;54190;49.770;9.250;2023-04-26T08:44:53;8.90;99.90
67273;DHT22;54190;49.770;9.250;2023-04-26T08:47:28;9.10;99.90
67273;DHT22;54190;49.770;9.250;2023-04-26T08:49:57;9.30;99.10
67273;DHT22;54190;49.770;9.250;2023-04-26T08:52:28;9.50;97.70
67273;DHT22;54190;49.770;9.250;2023-04-26T08:54:56;9.60;92.40
67273;DHT22;54190;49.770;9.250;2023-04-26T08:57:23;9.50;92.10
67273;DHT22;54190;49.770;9.250;2023-04-26T08:59:49;9.30;91.20
67273;DHT22;54190;49.770;9.250;2023-04-26T09:02:22;9.30;94.40
67273;DHT22;54190;49.770;9.250;2023-04-26T09:04:48;9.40;96.90
67273;DHT22;54190;49.770;9.250;2023-04-26T09:07:31;9.40;92.70
67273;DHT22;54190;49.770;9.250;2023-04-26T09:09:58;9.10;93.60
67273;DHT22;54190;49.770;9.250;2023-04-26T09:12:24;9.10;94.80
67273;DHT22;54190;49.770;9.250;2023-04-26T09:14:50;9.20;93.90
67273;DHT22;54190;49.770;9.250;2023-04-26T09:17:37;9.40;95.90
67273;DHT22;54190;49.770;9.250;2023-04-26T09:20:23;9.60;96.00
67273;DHT22;54190;49.770;9.250;2023-04-26T09:23:02;9.80;94.00
67273;DHT22;54190;49.770;9.250;2023-04-26T09:25:30;9.60;91.20
67273;DHT22;54190;49.770;9.250;2023-04-26T09:27:56;9.30;92.70
67273;DHT22;54190;49.770;9.250;2023-04-26T09:30:23;9.10;92.00
67273;DHT22;54190;49.770;9.250;2023-04-26T09:35:33;8.90;94.30
67273;DHT22;54190;49.770;9.250;2023-04-26T09:38:04;9.00;92.70
67273;DHT22;54190;49.770;9.250;2023-04-26T09:40:32;9.10;92.90
67273;DHT22;54190;49.770;9.250;2023-04-26T09:42:58;9.10;92.30
67273;DHT22;54190;49.770;9.250;2023-04-26T09:45:29;9.20;93.90
67273;DHT22;54190;49.770;9.250;2023-04-26T09:48:15;9.40;90.90
67273;DHT22;54190;49.770;9.250;2023-04-26T09:50:41;9.30;93.60
67273;DHT22;54190;49.770;9.250;2023-04-26T09:53:08;9.30;90.50
67273;DHT22;54190;49.770;9.250;2023-04-26T09:55:35;9.20;92.90
67273;DHT22;54190;49.770;9.250;2023-04-26T09:58:07;9.40;93.10
67273;DHT22;54190;49.770;9.250;2023-04-26T10:00:34;9.30;91.80
67273;DHT22;54190;49.770;9.250;2023-04-26T10:03:03;9.00;92.20
67273;DHT22;54190;49.770;9.250;2023-04-26T10:05:31;8.90;92.80
67273;DHT22;54190;49.770;9.250;2023-04-26T10:07:57;8.80;94.10
67273;DHT22;54190;49.770;9.250;2023-04-26T10:10:22;8.70;93.70
67273;DHT22;54190;49.770;9.250;2023-04-26T10:12:48;8.90;94.70
67273;DHT22;54190;49.770;9.250;2023-04-26T10:15:14;9.20;95.00
67273;DHT22;54190;49.770;9.250;2023-04-26T10:17:39;9.60;93.40
67273;DHT22;54190;49.770;9.250;2023-04-26T10:20:10;9.60;92.40
67273;DHT22;54190;49.770;9.250;2023-04-26T10:22:42;9.60;92.80
67273;DHT22;54190;49.770;9.250;2023-04-26T10:25:09;9.50;90.00
67273;DHT22;54190;49.770;9.250;2023-04-26T10:30:10;9.70;90.90
67273;DHT22;54190;49.770;9.250;2023-04-26T10:35:21;10.10;90.60
67273;DHT22;54190;49.770;9.250;2023-04-26T10:45:44;10.40;89.40
67273;DHT22;54190;49.770;9.250;2023-04-26T10:48:14;10.40;90.40
67273;DHT22;54190;49.770;9.250;2023-04-26T10:59:09;10.40;85.90
67273;DHT22;54190;49.770;9.250;2023-04-26T11:01:35;10.40;89.60
67273;DHT22;54190;49.770;9.250;2023-04-26T11:04:11;10.20;86.20
67273;DHT22;54190;49.770;9.250;2023-04-26T11:06:53;10.20;90.50
67273;DHT22;54190;49.770;9.250;2023-04-26T11:09:36;10.30;86.20
67273;DHT22;54190;49.770;9.250;2023-04-26T11:12:06;10.30;89.80
67273;DHT22;54190;49.770;9.250;2023-04-26T11:14:33;10.10;83.30
67273;DHT22;54190;49.770;9.250;2023-04-26T11:17:06;10.20;88.60
67273;DHT22;54190;49.770;9.250;2023-04-26T11:19:33;10.40;88.30
67273;DHT22;54190;49.770;9.250;2023-04-26T11:22:00;10.30;87.90
67273;DHT22;54190;49.770;9.250;2023-04-26T11:24:26;10.20;89.00
67273;DHT22;54190;49.770;9.250;2023-04-26T11:26:53;10.20;88.00
67273;DHT22;54190;49.770;9.250;2023-04-26T11:29:19;10.30;88.50
67273;DHT22;54190;49.770;9.250;2023-04-26T11:31:56;10.50;90.30
67273;DHT22;54190;49.770;9.250;2023-04-26T11:34:30;10.40;84.00
67273;DHT22;54190;49.770;9.250;2023-04-26T11:36:56;10.20;85.80
67273;DHT22;54190;49.770;9.250;2023-04-26T11:39:21;10.30;85.10
67273;DHT22;54190;49.770;9.250;2023-04-26T11:41:48;10.40;89.90
67273;DHT22;54190;49.770;9.250;2023-04-26T11:44:17;10.40;88.30
67273;DHT22;54190;49.770;9.250;2023-04-26T11:46:46;10.40;88.00
67273;DHT22;54190;49.770;9.250;2023-04-26T11:49:12;10.30;84.60
67273;DHT22;54190;49.770;9.250;2023-04-26T11:51:38;10.30;90.10
67273;DHT22;54190;49.770;9.250;2023-04-26T11:54:04;10.50;84.40
67273;DHT22;54190;49.770;9.250;2023-04-26T11:56:29;10.40;83.00
67273;DHT22;54190;49.770;9.250;2023-04-26T11:58:55;10.30;82.80
67273;DHT22;54190;49.770;9.250;2023-04-26T12:01:27;10.30;85.00
67273;DHT22;54190;49.770;9.250;2023-04-26T12:03:57;10.50;89.40
67273;DHT22;54190;49.770;9.250;2023-04-26T12:06:40;10.80;81.90
67273;DHT22;54190;49.770;9.250;2023-04-26T12:09:06;10.70;81.90
67273;DHT22;54190;49.770;9.250;2023-04-26T12:11:35;10.70;83.70
67273;DHT22;54190;49.770;9.250;2023-04-26T12:14:01;10.60;83.20
67273;DHT22;54190;49.770;9.250;2023-04-26T12:16:27;10.60;84.50
67273;DHT22;54190;49.770;9.250;2023-04-26T12:18:54;10.80;85.60
67273;DHT22;54190;49.770;9.250;2023-04-26T12:21:21;10.80;86.80
67273;DHT22;54190;49.770;9.250;2023-04-26T12:23:47;11.00;84.40
67273;DHT22;54190;49.770;9.250;2023-04-26T12:26:14;11.20;82.00
67273;DHT22;54190;49.770;9.250;2023-04-26T12:28:40;11.10;81.40
67273;DHT22;54190;49.770;9.250;2023-04-26T12:31:06;11.10;79.40
67273;DHT22;54190;49.770;9.250;2023-04-26T12:33:32;11.20;81.40
67273;DHT22;54190;49.770;9.250;2023-04-26T12:36:05;11.20;82.30
67273;DHT22;54190;49.770;9.250;2023-04-26T12:38:31;11.30;79.50
67273;DHT22;54190;49.770;9.250;2023-04-26T12:40:57;11.30;82.20
67273;DHT22;54190;49.770;9.250;2023-04-26T12:43:22;11.50;81.00
67273;DHT22;54190;49.770;9.250;2023-04-26T12:45:50;11.50;82.90
67273;DHT22;54190;49.770;9.250;2023-04-26T12:48:16;11.60;81.20
67273;DHT22;54190;49.770;9.250;2023-04-26T12:50:42;11.60;84.30
67273;DHT22;54190;49.770;9.250;2023-04-26T12:53:08;11.50;83.10
67273;DHT22;54190;49.770;9.250;2023-04-26T12:55:35;11.40;83.80
67273;DHT22;54190;49.770;9.250;2023-04-26T12:58:01;11.20;77.70
67273;DHT22;54190;49.770;9.250;2023-04-26T13:00:27;11.10;77.10
67273;DHT22;54190;49.770;9.250;2023-04-26T13:02:53;11.40;81.50
67273;DHT22;54190;49.770;9.250;2023-04-26T13:05:20;11.60;81.50
67273;DHT22;54190;49.770;9.250;2023-04-26T13:07:46;12.10;85.30
67273;DHT22;54190;49.770;9.250;2023-04-26T13:10:12;12.30;80.70
67273;DHT22;54190;49.770;9.250;2023-04-26T13:12:38;12.50;78.00
67273;DHT22;54190;49.770;9.250;2023-04-26T13:15:07;12.10;70.50
67273;DHT22;54190;49.770;9.250;2023-04-26T13:17:34;11.60;73.60
67273;DHT22;54190;49.770;9.250;2023-04-26T13:20:01;11.40;77.10
67273;DHT22;54190;49.770;9.250;2023-04-26T13:22:26;11.30;75.70
67273;DHT22;54190;49.770;9.250;2023-04-26T13:24:52;11.30;75.70
67273;DHT22;54190;49.770;9.250;2023-04-26T13:27:18;11.50;77.10
67273;DHT22;54190;49.770;9.250;2023-04-26T13:29:43;12.00;78.40
67273;DHT22;54190;49.770;9.250;2023-04-26T13:32:09;12.00;71.40
67273;DHT22;54190;49.770;9.250;2023-04-26T13:34:35;12.00;71.80
67273;DHT22;54190;49.770;9.250;2023-04-26T13:37:01;12.00;70.60
67273;DHT22;54190;49.770;9.250;2023-04-26T13:39:28;12.10;74.80
67273;DHT22;54190;49.770;9.250;2023-04-26T13:41:54;12.10;74.60
67273;DHT22;54190;49.770;9.250;2023-04-26T13:44:20;12.00;73.60
67273;DHT22;54190;49.770;9.250;2023-04-26T13:46:46;11.70;72.30
67273;DHT22;54190;49.770;9.250;2023-04-26T13:49:12;11.50;74.40
67273;DHT22;54190;49.770;9.250;2023-04-26T13:51:39;11.60;77.40
67273;DHT22;54190;49.770;9.250;2023-04-26T13:54:05;11.80;71.50
67273;DHT22;54190;49.770;9.250;2023-04-26T13:56:34;12.10;75.60
67273;DHT22;54190;49.770;9.250;2023-04-26T13:58:59;12.10;69.80
67273;DHT22;54190;49.770;9.250;2023-04-26T14:01:30;12.10;68.20
67273;DHT22;54190;49.770;9.250;2023-04-26T14:03:57;12.20;72.30
67273;DHT22;54190;49.770;9.250;2023-04-26T14:06:23;12.30;69.30
67273;DHT22;54190;49.770;9.250;2023-04-26T14:08:48;12.10;68.90
67273;DHT22;54190;49.770;9.250;2023-04-26T14:11:14;12.00;71.70
67273;DHT22;54190;49.770;9.250;2023-04-26T14:13:40;12.10;76.30
67273;DHT22;54190;49.770;9.250;2023-04-26T14:16:06;12.40;74.60
67273;DHT22;54190;49.770;9.250;2023-04-26T14:18:33;12.30;71.20
67273;DHT22;54190;49.770;9.250;2023-04-26T14:20:58;12.30;74.30
67273;DHT22;54190;49.770;9.250;2023-04-26T14:23:24;12.10;66.10
67273;DHT22;54190;49.770;9.250;2023-04-26T14:25:51;12.00;65.10
67273;DHT22;54190;49.770;9.250;2023-04-26T14:28:16;11.80;70.10
67273;DHT22;54190;49.770;9.250;2023-04-26T14:30:42;11.80;67.20
67273;DHT22;54190;49.770;9.250;2023-04-26T14:33:08;11.60;67.80
67273;DHT22;54190;49.770;9.250;2023-04-26T14:35:33;11.50;67.60
67273;DHT22;54190;49.770;9.250;2023-04-26T14:38:00;11.70;67.60
67273;DHT22;54190;49.770;9.250;2023-04-26T14:40:26;11.80;68.00
67273;DHT22;54190;49.770;9.250;2023-04-26T14:42:51;11.80;64.10
67273;DHT22;54190;49.770;9.250;2023-04-26T14:45:17;11.70;66.60
67273;DHT22;54190;49.770;9.250;2023-04-26T14:47:43;11.80;67.20
67273;DHT22;54190;49.770;9.250;2023-04-26T14:50:08;11.90;68.50
67273;DHT22;54190;49.770;9.250;2023-04-26T14:52:36;12.00;67.00
67273;DHT22;54190;49.770;9.250;2023-04-26T14:55:02;11.90;66.20
67273;DHT22;54190;49.770;9.250;2023-04-26T14:57:28;11.90;67.20
67273;DHT22;54190;49.770;9.250;2023-04-26T14:59:54;12.00;65.20
67273;DHT22;54190;49.770;9.250;2023-04-26T15:02:20;12.00;62.80
67273;DHT22;54190;49.770;9.250;2023-04-26T15:04:45;11.80;61.20
67273;DHT22;54190;49.770;9.250;2023-04-26T15:07:11;11.90;61.20
67273;DHT22;54190;49.770;9.250;2023-04-26T15:09:37;12.10;60.60
67273;DHT22;54190;49.770;9.250;2023-04-26T15:12:02;12.00;61.00
67273;DHT22;54190;49.770;9.250;2023-04-26T15:14:29;12.00;65.20
67273;DHT22;54190;49.770;9.250;2023-04-26T15:16:56;11.90;62.90
67273;DHT22;54190;49.770;9.250;2023-04-26T15:19:22;11.90;62.90
67273;DHT22;54190;49.770;9.250;2023-04-26T15:21:47;11.70;62.70
67273;DHT22;54190;49.770;9.250;2023-04-26T15:24:13;11.60;63.60
67273;DHT22;54190;49.770;9.250;2023-04-26T15:26:39;11.50;64.10
67273;DHT22;54190;49.770;9.250;2023-04-26T15:29:05;11.50;63.30
67273;DHT22;54190;49.770;9.250;2023-04-26T15:31:31;11.60;66.10
67273;DHT22;54190;49.770;9.250;2023-04-26T15:33:56;11.50;65.80
67273;DHT22;54190;49.770;9.250;2023-04-26T15:36:23;11.50;63.40
67273;DHT22;54190;49.770;9.250;2023-04-26T15:38:48;11.40;61.60
67273;DHT22;54190;49.770;9.250;2023-04-26T15:41:14;11.30;62.00
67273;DHT22;54190;49.770;9.250;2023-04-26T15:43:40;11.30;62.90
67273;DHT22;54190;49.770;9.250;2023-04-26T15:46:05;11.30;62.90
67273;DHT22;54190;49.770;9.250;2023-04-26T15:48:31;11.20;64.60
67273;DHT22;54190;49.770;9.250;2023-04-26T15:50:56;11.20;63.30
67273;DHT22;54190;49.770;9.250;2023-04-26T15:53:23;11.10;63.40
67273;DHT22;54190;49.770;9.250;2023-04-26T15:55:49;11.20;66.60
67273;DHT22;54190;49.770;9.250;2023-04-26T15:58:15;11.30;67.50
67273;DHT22;54190;49.770;9.250;2023-04-26T16:00:41;11.50;69.00
67273;DHT22;54190;49.770;9.250;2023-04-26T16:03:07;11.60;67.90